Terminal Aerodrome Forecast
Issued by NWS La Crosse, WI

Home | Current Version | Previous Version | Text Only | Print | Product List | Glossary On
Versions: 1 2 3 4 5 6 7 8 9 10 11 12 13 14 15 16 17 18 19 20 21 22 23 24 25 26
000
FTUS43 KARX 011730
TAFRST
TAF
KRST 011730Z 0118/0218 06008KT P6SM SCT020 BKN100
      TEMPO 0118/0120 BKN020
     FM020400 VRB03KT P6SM BKN100
     FM021500 02005KT P6SM SCT100=

USA.gov is the U.S. government's official web portal to all federal, state and local government web resources and services.